createdAt,value
2023-01-15T00:03:20.342Z,7.00
2023-01-15T00:08:24.767Z,7.03
2023-01-15T00:13:29.025Z,7.00
2023-01-15T00:18:32.505Z,6.96
2023-01-15T00:23:55.152Z,6.92
2023-01-15T00:28:58.234Z,6.91
2023-01-15T00:34:01.538Z,6.86
2023-01-15T00:39:06.421Z,6.88
2023-01-15T00:44:09.644Z,6.86
2023-01-15T00:49:12.734Z,6.87
2023-01-15T00:54:17.089Z,6.85
2023-01-15T00:59:20.278Z,6.81
2023-01-15T01:04:23.387Z,6.77
2023-01-15T01:09:27.824Z,6.72
2023-01-15T01:14:30.953Z,6.77
2023-01-15T01:19:34.662Z,6.70
2023-01-15T01:24:39.107Z,6.67
2023-01-15T01:29:43.286Z,6.54
2023-01-15T01:34:46.511Z,6.61
2023-01-15T01:39:51.659Z,6.62
2023-01-15T01:45:05.320Z,6.54
2023-01-15T01:50:14.644Z,6.55
2023-01-15T01:55:23.310Z,6.49
2023-01-15T02:00:27.951Z,6.51
2023-01-15T02:05:34.429Z,6.45
2023-01-15T02:10:38.889Z,6.38
2023-01-15T02:15:47.247Z,6.39
2023-01-15T02:20:55.567Z,6.32
2023-01-15T02:26:17.519Z,6.34
2023-01-15T02:31:28.642Z,6.35
2023-01-15T02:36:35.541Z,6.25
2023-01-15T02:41:45.354Z,6.26
2023-01-15T02:46:51.340Z,6.26
2023-01-15T02:51:59.648Z,6.26
2023-01-15T02:57:04.732Z,6.26
2023-01-15T03:02:14.417Z,6.18
2023-01-15T03:07:23.099Z,6.08
2023-01-15T03:12:31.666Z,6.01
2023-01-15T03:17:42.562Z,6.03
2023-01-15T03:22:51.551Z,6.10
2023-01-15T03:27:59.613Z,6.04
2023-01-15T03:33:05.609Z,5.96
2023-01-15T03:38:09.847Z,5.96
2023-01-15T03:43:34.406Z,5.84
2023-01-15T03:48:45.355Z,5.85
2023-01-15T03:53:51.953Z,5.81
2023-01-15T03:59:01.882Z,5.76
2023-01-15T04:04:23.893Z,5.67
2023-01-15T04:09:27.449Z,5.70
2023-01-15T04:14:34.842Z,5.66
2023-01-15T04:19:45.728Z,5.59
2023-01-15T04:24:49.612Z,5.52
2023-01-15T04:29:52.620Z,5.71
2023-01-15T04:34:57.214Z,5.68
2023-01-15T04:40:00.800Z,5.71
2023-01-15T04:45:03.998Z,5.67
2023-01-15T04:50:09.950Z,5.62
2023-01-15T04:55:13.006Z,5.63
2023-01-15T05:00:16.889Z,5.61
2023-01-15T05:05:21.439Z,5.62
2023-01-15T05:10:24.583Z,5.60
2023-01-15T05:15:27.897Z,5.62
2023-01-15T05:20:32.301Z,5.55
2023-01-15T05:25:39.600Z,5.57
2023-01-15T05:30:42.751Z,5.51
2023-01-15T05:35:47.578Z,5.46
2023-01-15T05:40:50.638Z,5.37
2023-01-15T05:45:53.837Z,5.39
2023-01-15T05:50:58.469Z,5.35
2023-01-15T05:56:02.778Z,5.25
2023-01-15T06:01:08.777Z,5.26
2023-01-15T06:06:19.375Z,5.21
2023-01-15T06:11:22.487Z,5.23
2023-01-15T06:16:25.549Z,5.41
2023-01-15T06:21:30.535Z,5.42
2023-01-15T06:26:33.618Z,5.44
2023-01-15T06:31:36.857Z,5.43
2023-01-15T06:36:41.380Z,5.23
2023-01-15T06:42:02.047Z,5.17
2023-01-15T06:47:24.116Z,5.07
2023-01-15T06:52:30.635Z,4.98
2023-01-15T06:57:33.741Z,4.92
2023-01-15T07:02:36.884Z,4.87
2023-01-15T07:07:41.484Z,4.80
2023-01-15T07:12:46.864Z,4.72
2023-01-15T07:17:49.981Z,4.70
2023-01-15T07:22:54.613Z,4.69
2023-01-15T07:28:25.349Z,4.60
2023-01-15T07:39:17.151Z,4.55
2023-01-15T07:44:37.791Z,4.55
2023-01-15T07:49:48.712Z,4.49
2023-01-15T07:54:53.274Z,4.47
2023-01-15T07:59:56.614Z,4.45
2023-01-15T08:04:59.738Z,4.44
2023-01-15T08:10:04.589Z,4.45
2023-01-15T08:15:17.091Z,4.42
2023-01-15T08:20:22.810Z,4.41
2023-01-15T08:25:28.541Z,4.39
2023-01-15T08:30:31.756Z,4.52
2023-01-15T08:35:35.707Z,4.72
2023-01-15T08:40:59.005Z,4.77
2023-01-15T08:46:04.632Z,4.72
2023-01-15T08:51:09.390Z,4.73
2023-01-15T08:56:15.377Z,4.81
2023-01-15T09:01:18.648Z,4.87
2023-01-15T09:06:22.207Z,4.89
2023-01-15T09:11:26.646Z,5.16
2023-01-15T09:16:32.298Z,5.14
2023-01-15T09:21:36.922Z,5.32
2023-01-15T09:26:41.857Z,5.39
2023-01-15T09:31:44.929Z,5.67
2023-01-15T09:36:51.274Z,5.97
2023-01-15T09:42:09.223Z,6.12
2023-01-15T09:47:17.122Z,6.42
2023-01-15T09:52:28.010Z,6.47
2023-01-15T09:57:36.327Z,6.57
2023-01-15T10:02:45.092Z,6.44
2023-01-15T10:07:56.847Z,6.38
2023-01-15T10:13:51.049Z,6.52
2023-01-15T10:18:59.315Z,6.87
2023-01-15T10:24:06.771Z,6.88
2023-01-15T10:29:19.298Z,6.94
2023-01-15T10:34:54.916Z,7.13
2023-01-15T10:40:21.368Z,7.22
2023-01-15T10:45:27.965Z,6.95
2023-01-15T10:50:31.247Z,7.16
2023-01-15T10:55:40.011Z,7.31
2023-01-15T11:00:51.344Z,7.37
2023-01-15T11:05:54.418Z,7.14
2023-01-15T11:10:58.751Z,7.23
2023-01-15T11:16:21.359Z,7.24
2023-01-15T11:21:26.001Z,7.17
2023-01-15T11:26:31.868Z,7.19
2023-01-15T11:31:40.310Z,7.15
2023-01-15T11:49:28.260Z,7.28
2023-01-15T11:54:34.096Z,7.18
2023-01-15T11:59:38.163Z,7.05
2023-01-15T12:04:51.475Z,6.85
2023-01-15T12:10:10.775Z,7.08
2023-01-15T12:15:30.588Z,7.07
2023-01-15T12:20:49.680Z,7.32
2023-01-15T12:25:59.835Z,7.56
2023-01-15T12:31:12.052Z,7.36
2023-01-15T12:36:21.331Z,7.20
2023-01-15T12:41:49.967Z,7.20
2023-01-15T12:46:54.051Z,7.24
2023-01-15T12:52:05.539Z,7.18
2023-01-15T12:57:17.139Z,7.17
2023-01-15T13:02:26.868Z,7.22
2023-01-15T13:07:36.936Z,7.15
2023-01-15T13:12:40.255Z,7.22
2023-01-15T13:17:54.915Z,7.13
2023-01-15T13:29:48.125Z,7.12
2023-01-15T13:34:57.285Z,7.01
2023-01-15T13:40:31.312Z,6.98
2023-01-15T13:45:38.226Z,7.03
2023-01-15T13:57:27.609Z,6.89
2023-01-15T14:02:33.124Z,6.72
2023-01-15T14:07:38.513Z,6.70
2023-01-15T14:12:52.360Z,6.82
2023-01-15T14:18:22.277Z,7.07
2023-01-15T14:23:53.087Z,6.88
2023-01-15T14:29:06.270Z,6.92
2023-01-15T14:34:24.148Z,6.85
2023-01-15T14:39:32.223Z,6.64
2023-01-15T14:44:37.411Z,6.55
2023-01-15T14:49:49.744Z,6.46
2023-01-15T14:54:57.115Z,6.32
2023-01-15T15:00:05.683Z,6.19
2023-01-15T15:05:17.157Z,6.05
2023-01-15T15:10:26.613Z,6.07
2023-01-15T15:15:42.739Z,6.02
2023-01-15T15:20:59.909Z,5.97
2023-01-15T15:26:05.359Z,5.86
2023-01-15T15:31:12.168Z,5.97
2023-01-15T15:36:15.524Z,6.03
2023-01-15T15:41:39.618Z,6.08
2023-01-15T15:47:08.072Z,6.10
2023-01-15T15:52:24.165Z,6.03
2023-01-15T15:57:30.157Z,6.06
2023-01-15T16:02:41.003Z,6.04
2023-01-15T16:07:44.604Z,5.84
2023-01-15T16:12:51.403Z,5.79
2023-01-15T16:17:57.892Z,5.76
2023-01-15T16:23:03.351Z,5.70
2023-01-15T16:28:07.649Z,5.62
2023-01-15T16:33:20.424Z,5.54
2023-01-15T16:38:23.905Z,5.43
2023-01-15T16:43:28.327Z,5.55
2023-01-15T16:48:38.523Z,5.46
2023-01-15T16:53:42.493Z,5.41
2023-01-15T16:59:37.837Z,5.39
2023-01-15T17:04:49.219Z,5.35
2023-01-15T17:09:55.660Z,5.33
2023-01-15T17:15:21.175Z,5.28
2023-01-15T17:20:28.092Z,5.19
2023-01-15T17:25:35.105Z,5.15
2023-01-15T17:30:38.547Z,5.08
2023-01-15T17:35:43.304Z,5.05
2023-01-15T17:40:51.402Z,5.09
2023-01-15T17:45:54.655Z,5.25
2023-01-15T17:51:01.338Z,5.12
2023-01-15T17:56:22.510Z,5.00
2023-01-15T18:01:45.842Z,4.89
2023-01-15T18:06:54.779Z,4.83
2023-01-15T18:11:58.121Z,4.78
2023-01-15T18:17:01.547Z,4.76
2023-01-15T18:22:06.035Z,4.72
2023-01-15T18:27:09.262Z,4.66
2023-01-15T18:32:15.577Z,4.61
2023-01-15T18:37:20.099Z,4.57
2023-01-15T18:42:40.624Z,4.52
2023-01-15T18:47:43.770Z,4.49
2023-01-15T18:52:55.423Z,4.43
2023-01-15T18:58:00.216Z,4.33
2023-01-15T19:03:04.080Z,4.30
2023-01-15T19:08:09.205Z,4.27
2023-01-15T19:13:17.390Z,4.22
2023-01-15T19:18:38.056Z,4.18
2023-01-15T19:23:42.747Z,4.11
2023-01-15T19:28:46.041Z,4.05
2023-01-15T19:33:49.898Z,3.97
2023-01-15T19:38:54.363Z,4.03
2023-01-15T19:44:14.968Z,3.92
2023-01-15T19:49:38.558Z,3.92
2023-01-15T19:54:59.979Z,3.87
2023-01-15T20:00:06.425Z,3.86
2023-01-15T20:05:10.983Z,3.97
2023-01-15T20:10:18.553Z,3.98
2023-01-15T20:15:22.123Z,4.22
2023-01-15T20:20:25.871Z,4.22
2023-01-15T20:25:31.255Z,4.07
2023-01-15T20:30:34.972Z,4.04
2023-01-15T20:35:41.109Z,4.14
2023-01-15T20:40:45.863Z,4.31
2023-01-15T20:45:49.205Z,4.26
2023-01-15T20:51:01.745Z,4.22
2023-01-15T20:56:14.277Z,4.17
2023-01-15T21:01:17.912Z,4.28
2023-01-15T21:06:21.247Z,4.26
2023-01-15T21:11:26.476Z,4.22
2023-01-15T21:16:29.617Z,4.09
2023-01-15T21:21:32.925Z,4.06
2023-01-15T21:26:37.905Z,4.01
2023-01-15T21:31:41.061Z,4.08
2023-01-15T21:36:44.551Z,4.11
2023-01-15T21:42:08.856Z,4.16
2023-01-15T21:47:14.170Z,4.28
2023-01-15T21:52:19.645Z,4.27
2023-01-15T21:57:24.528Z,4.43
2023-01-15T22:02:29.955Z,4.53
2023-01-15T22:07:33.134Z,4.53
2023-01-15T22:12:42.144Z,4.59
2023-01-15T22:17:45.477Z,4.64
2023-01-15T22:22:51.268Z,4.77
2023-01-15T22:27:56.626Z,4.76
2023-01-15T22:33:00.926Z,4.81
2023-01-15T22:38:04.506Z,4.87
2023-01-15T22:43:09.338Z,4.85
2023-01-15T22:48:13.224Z,4.84
2023-01-15T22:53:19.112Z,4.81
2023-01-15T22:58:23.680Z,4.78
2023-01-15T23:03:26.897Z,4.83
2023-01-15T23:08:32.346Z,4.81
2023-01-15T23:13:37.212Z,4.83
2023-01-15T23:18:40.395Z,4.93
2023-01-15T23:23:43.783Z,4.92
2023-01-15T23:28:48.731Z,4.95
2023-01-15T23:33:51.963Z,4.85
2023-01-15T23:38:55.476Z,4.72
2023-01-15T23:44:26.074Z,4.82
2023-01-15T23:49:29.359Z,4.86
2023-01-15T23:54:32.703Z,4.86
2023-01-15T23:59:37.754Z,4.81
